sensor_id;sensor_type;location;lat;lon;timestamp;P1;durP1;ratioP1;P2;durP2;ratioP2
57297;SDS011;43147;50.972;18.210;2023-02-15T00:01:24;57.30;;;25.60;;
57297;SDS011;43147;50.972;18.210;2023-02-15T00:03:52;57.40;;;24.40;;
57297;SDS011;43147;50.972;18.210;2023-02-15T00:06:17;73.40;;;25.60;;
57297;SDS011;43147;50.972;18.210;2023-02-15T00:08:43;67.50;;;27.50;;
57297;SDS011;43147;50.972;18.210;2023-02-15T00:11:10;69.80;;;25.10;;
57297;SDS011;43147;50.972;18.210;2023-02-15T00:13:38;70.30;;;26.40;;
57297;SDS011;43147;50.972;18.210;2023-02-15T00:16:06;59.20;;;24.70;;
57297;SDS011;43147;50.972;18.210;2023-02-15T00:18:36;73.80;;;26.10;;
57297;SDS011;43147;50.972;18.210;2023-02-15T00:21:07;56.70;;;24.10;;
57297;SDS011;43147;50.972;18.210;2023-02-15T00:23:34;59.40;;;24.70;;
57297;SDS011;43147;50.972;18.210;2023-02-15T00:26:03;54.50;;;22.30;;
57297;SDS011;43147;50.972;18.210;2023-02-15T00:28:30;66.50;;;24.20;;
57297;SDS011;43147;50.972;18.210;2023-02-15T00:31:02;70.30;;;26.20;;
57297;SDS011;43147;50.972;18.210;2023-02-15T00:33:30;47.60;;;18.80;;
57297;SDS011;43147;50.972;18.210;2023-02-15T00:35:57;44.70;;;20.00;;
57297;SDS011;43147;50.972;18.210;2023-02-15T00:38:23;45.90;;;21.00;;
57297;SDS011;43147;50.972;18.210;2023-02-15T00:40:55;48.70;;;20.60;;
57297;SDS011;43147;50.972;18.210;2023-02-15T00:43:22;43.70;;;19.10;;
57297;SDS011;43147;50.972;18.210;2023-02-15T00:45:47;51.10;;;20.90;;
57297;SDS011;43147;50.972;18.210;2023-02-15T00:48:13;65.30;;;24.10;;
57297;SDS011;43147;50.972;18.210;2023-02-15T00:50:39;62.30;;;24.50;;
57297;SDS011;43147;50.972;18.210;2023-02-15T00:53:04;65.80;;;24.30;;
57297;SDS011;43147;50.972;18.210;2023-02-15T00:55:30;57.50;;;22.60;;
57297;SDS011;43147;50.972;18.210;2023-02-15T00:57:56;58.90;;;22.00;;
57297;SDS011;43147;50.972;18.210;2023-02-15T01:00:21;44.90;;;20.60;;
57297;SDS011;43147;50.972;18.210;2023-02-15T01:02:47;45.20;;;18.50;;
57297;SDS011;43147;50.972;18.210;2023-02-15T01:05:12;36.50;;;17.10;;
57297;SDS011;43147;50.972;18.210;2023-02-15T01:07:38;38.50;;;17.20;;
57297;SDS011;43147;50.972;18.210;2023-02-15T01:10:04;41.20;;;17.60;;
57297;SDS011;43147;50.972;18.210;2023-02-15T01:12:33;48.40;;;21.80;;
57297;SDS011;43147;50.972;18.210;2023-02-15T01:14:59;54.40;;;23.00;;
57297;SDS011;43147;50.972;18.210;2023-02-15T01:17:25;44.70;;;19.00;;
57297;SDS011;43147;50.972;18.210;2023-02-15T01:19:51;52.40;;;19.80;;
57297;SDS011;43147;50.972;18.210;2023-02-15T01:22:17;49.10;;;18.90;;
57297;SDS011;43147;50.972;18.210;2023-02-15T01:24:43;55.30;;;19.80;;
57297;SDS011;43147;50.972;18.210;2023-02-15T01:27:09;42.40;;;19.60;;
57297;SDS011;43147;50.972;18.210;2023-02-15T01:29:35;39.90;;;17.80;;
57297;SDS011;43147;50.972;18.210;2023-02-15T01:32:00;30.40;;;15.80;;
57297;SDS011;43147;50.972;18.210;2023-02-15T01:34:26;33.10;;;16.10;;
57297;SDS011;43147;50.972;18.210;2023-02-15T01:36:52;34.80;;;16.10;;
57297;SDS011;43147;50.972;18.210;2023-02-15T01:39:18;37.00;;;16.00;;
57297;SDS011;43147;50.972;18.210;2023-02-15T01:41:43;38.20;;;15.00;;
57297;SDS011;43147;50.972;18.210;2023-02-15T01:47:39;30.90;;;15.10;;
57297;SDS011;43147;50.972;18.210;2023-02-15T01:52:34;30.90;;;14.50;;
57297;SDS011;43147;50.972;18.210;2023-02-15T01:55:03;39.30;;;15.80;;
57297;SDS011;43147;50.972;18.210;2023-02-15T01:57:29;33.00;;;15.20;;
57297;SDS011;43147;50.972;18.210;2023-02-15T01:59:56;30.40;;;14.20;;
57297;SDS011;43147;50.972;18.210;2023-02-15T02:02:23;32.40;;;15.00;;
57297;SDS011;43147;50.972;18.210;2023-02-15T02:04:51;32.10;;;15.40;;
57297;SDS011;43147;50.972;18.210;2023-02-15T02:07:22;30.90;;;16.10;;
57297;SDS011;43147;50.972;18.210;2023-02-15T02:09:49;40.20;;;15.70;;
57297;SDS011;43147;50.972;18.210;2023-02-15T02:12:16;34.70;;;17.50;;
57297;SDS011;43147;50.972;18.210;2023-02-15T02:14:42;41.60;;;19.10;;
57297;SDS011;43147;50.972;18.210;2023-02-15T02:17:12;45.40;;;19.50;;
57297;SDS011;43147;50.972;18.210;2023-02-15T02:27:33;71.30;;;27.80;;
57297;SDS011;43147;50.972;18.210;2023-02-15T02:36:11;63.10;;;27.10;;
57297;SDS011;43147;50.972;18.210;2023-02-15T02:38:48;51.70;;;23.60;;
57297;SDS011;43147;50.972;18.210;2023-02-15T02:44:17;83.30;;;32.10;;
57297;SDS011;43147;50.972;18.210;2023-02-15T02:49:38;37.20;;;18.70;;
57297;SDS011;43147;50.972;18.210;2023-02-15T02:54:59;52.70;;;21.20;;
57297;SDS011;43147;50.972;18.210;2023-02-15T02:57:25;51.00;;;20.90;;
57297;SDS011;43147;50.972;18.210;2023-02-15T02:59:52;45.60;;;20.50;;
57297;SDS011;43147;50.972;18.210;2023-02-15T03:02:22;71.00;;;25.90;;
57297;SDS011;43147;50.972;18.210;2023-02-15T03:04:58;62.30;;;21.00;;
57297;SDS011;43147;50.972;18.210;2023-02-15T03:07:29;57.00;;;22.70;;
57297;SDS011;43147;50.972;18.210;2023-02-15T03:09:57;54.20;;;22.80;;
57297;SDS011;43147;50.972;18.210;2023-02-15T03:12:25;53.60;;;22.20;;
57297;SDS011;43147;50.972;18.210;2023-02-15T03:15:04;70.70;;;27.30;;
57297;SDS011;43147;50.972;18.210;2023-02-15T03:17:45;56.70;;;24.10;;
57297;SDS011;43147;50.972;18.210;2023-02-15T03:20:16;43.60;;;20.90;;
57297;SDS011;43147;50.972;18.210;2023-02-15T03:22:51;34.50;;;19.70;;
57297;SDS011;43147;50.972;18.210;2023-02-15T03:25:33;50.20;;;21.60;;
57297;SDS011;43147;50.972;18.210;2023-02-15T03:28:03;39.30;;;19.10;;
57297;SDS011;43147;50.972;18.210;2023-02-15T03:30:32;45.00;;;19.60;;
57297;SDS011;43147;50.972;18.210;2023-02-15T03:33:00;42.60;;;20.00;;
57297;SDS011;43147;50.972;18.210;2023-02-15T03:35:28;58.30;;;21.80;;
57297;SDS011;43147;50.972;18.210;2023-02-15T03:38:02;49.50;;;20.30;;
57297;SDS011;43147;50.972;18.210;2023-02-15T03:40:41;42.70;;;18.10;;
57297;SDS011;43147;50.972;18.210;2023-02-15T03:48:47;32.70;;;17.40;;
57297;SDS011;43147;50.972;18.210;2023-02-15T03:51:18;32.30;;;16.70;;
57297;SDS011;43147;50.972;18.210;2023-02-15T03:54:16;32.40;;;16.70;;
57297;SDS011;43147;50.972;18.210;2023-02-15T03:57:04;31.30;;;15.90;;
57297;SDS011;43147;50.972;18.210;2023-02-15T03:59:51;30.60;;;16.50;;
57297;SDS011;43147;50.972;18.210;2023-02-15T04:02:38;30.00;;;15.10;;
57297;SDS011;43147;50.972;18.210;2023-02-15T04:05:08;29.40;;;17.40;;
57297;SDS011;43147;50.972;18.210;2023-02-15T04:07:33;33.40;;;17.90;;
57297;SDS011;43147;50.972;18.210;2023-02-15T04:10:01;30.50;;;17.70;;
57297;SDS011;43147;50.972;18.210;2023-02-15T04:12:46;33.20;;;17.50;;
57297;SDS011;43147;50.972;18.210;2023-02-15T04:15:12;28.50;;;16.80;;
57297;SDS011;43147;50.972;18.210;2023-02-15T04:20:22;32.70;;;17.10;;
57297;SDS011;43147;50.972;18.210;2023-02-15T04:23:06;27.80;;;14.80;;
57297;SDS011;43147;50.972;18.210;2023-02-15T04:25:50;27.80;;;15.20;;
57297;SDS011;43147;50.972;18.210;2023-02-15T04:28:16;24.30;;;16.30;;
57297;SDS011;43147;50.972;18.210;2023-02-15T04:30:41;34.50;;;17.70;;
57297;SDS011;43147;50.972;18.210;2023-02-15T04:33:07;32.80;;;19.00;;
57297;SDS011;43147;50.972;18.210;2023-02-15T04:35:32;34.60;;;19.20;;
57297;SDS011;43147;50.972;18.210;2023-02-15T04:37:58;32.60;;;17.60;;
57297;SDS011;43147;50.972;18.210;2023-02-15T04:40:25;36.80;;;16.80;;
57297;SDS011;43147;50.972;18.210;2023-02-15T04:42:50;35.50;;;17.60;;
57297;SDS011;43147;50.972;18.210;2023-02-15T04:45:16;33.10;;;19.20;;
57297;SDS011;43147;50.972;18.210;2023-02-15T04:47:42;37.50;;;20.50;;
57297;SDS011;43147;50.972;18.210;2023-02-15T04:50:08;40.10;;;20.40;;
57297;SDS011;43147;50.972;18.210;2023-02-15T04:52:34;37.30;;;19.60;;
57297;SDS011;43147;50.972;18.210;2023-02-15T04:55:00;38.30;;;21.10;;
57297;SDS011;43147;50.972;18.210;2023-02-15T04:57:25;38.00;;;19.30;;
57297;SDS011;43147;50.972;18.210;2023-02-15T04:59:51;34.30;;;20.00;;
57297;SDS011;43147;50.972;18.210;2023-02-15T05:02:16;31.30;;;19.00;;
57297;SDS011;43147;50.972;18.210;2023-02-15T05:04:42;39.80;;;22.80;;
57297;SDS011;43147;50.972;18.210;2023-02-15T05:07:07;41.70;;;21.80;;
57297;SDS011;43147;50.972;18.210;2023-02-15T05:09:33;39.10;;;20.40;;
57297;SDS011;43147;50.972;18.210;2023-02-15T05:11:58;39.40;;;22.70;;
57297;SDS011;43147;50.972;18.210;2023-02-15T05:14:24;37.60;;;21.40;;
57297;SDS011;43147;50.972;18.210;2023-02-15T05:16:50;35.30;;;19.10;;
57297;SDS011;43147;50.972;18.210;2023-02-15T05:19:16;37.40;;;19.50;;
57297;SDS011;43147;50.972;18.210;2023-02-15T05:21:41;41.10;;;20.90;;
57297;SDS011;43147;50.972;18.210;2023-02-15T05:24:07;40.50;;;20.40;;
57297;SDS011;43147;50.972;18.210;2023-02-15T05:26:51;44.00;;;19.40;;
57297;SDS011;43147;50.972;18.210;2023-02-15T05:29:35;41.10;;;21.40;;
57297;SDS011;43147;50.972;18.210;2023-02-15T05:32:01;45.60;;;22.60;;
57297;SDS011;43147;50.972;18.210;2023-02-15T05:34:27;43.90;;;21.90;;
57297;SDS011;43147;50.972;18.210;2023-02-15T05:36:53;43.60;;;22.20;;
57297;SDS011;43147;50.972;18.210;2023-02-15T05:39:18;44.00;;;23.00;;
57297;SDS011;43147;50.972;18.210;2023-02-15T05:41:44;51.40;;;23.50;;
57297;SDS011;43147;50.972;18.210;2023-02-15T05:44:09;46.10;;;24.30;;
57297;SDS011;43147;50.972;18.210;2023-02-15T05:46:37;46.20;;;23.80;;
57297;SDS011;43147;50.972;18.210;2023-02-15T05:49:03;44.00;;;22.60;;
57297;SDS011;43147;50.972;18.210;2023-02-15T05:51:28;49.30;;;24.60;;
57297;SDS011;43147;50.972;18.210;2023-02-15T05:53:54;44.50;;;24.60;;
57297;SDS011;43147;50.972;18.210;2023-02-15T05:56:19;43.40;;;21.30;;
57297;SDS011;43147;50.972;18.210;2023-02-15T05:58:45;42.90;;;21.70;;
57297;SDS011;43147;50.972;18.210;2023-02-15T06:01:17;36.10;;;20.20;;
57297;SDS011;43147;50.972;18.210;2023-02-15T06:03:44;41.40;;;21.70;;
57297;SDS011;43147;50.972;18.210;2023-02-15T06:06:10;45.10;;;23.00;;
57297;SDS011;43147;50.972;18.210;2023-02-15T06:08:36;45.10;;;23.80;;
57297;SDS011;43147;50.972;18.210;2023-02-15T06:11:02;41.40;;;22.60;;
57297;SDS011;43147;50.972;18.210;2023-02-15T06:13:28;48.00;;;21.40;;
57297;SDS011;43147;50.972;18.210;2023-02-15T06:15:54;50.00;;;24.80;;
57297;SDS011;43147;50.972;18.210;2023-02-15T06:18:19;48.90;;;25.30;;
57297;SDS011;43147;50.972;18.210;2023-02-15T06:20:45;58.60;;;27.80;;
57297;SDS011;43147;50.972;18.210;2023-02-15T06:23:11;59.50;;;29.70;;
57297;SDS011;43147;50.972;18.210;2023-02-15T06:25:37;46.60;;;24.60;;
57297;SDS011;43147;50.972;18.210;2023-02-15T06:28:03;48.40;;;23.00;;
57297;SDS011;43147;50.972;18.210;2023-02-15T06:30:28;44.50;;;23.70;;
57297;SDS011;43147;50.972;18.210;2023-02-15T06:32:54;50.80;;;25.40;;
57297;SDS011;43147;50.972;18.210;2023-02-15T06:35:19;57.20;;;25.90;;
57297;SDS011;43147;50.972;18.210;2023-02-15T06:37:47;57.20;;;26.50;;
57297;SDS011;43147;50.972;18.210;2023-02-15T06:40:13;47.50;;;26.80;;
57297;SDS011;43147;50.972;18.210;2023-02-15T06:42:39;48.90;;;25.80;;
57297;SDS011;43147;50.972;18.210;2023-02-15T06:45:06;58.50;;;26.60;;
57297;SDS011;43147;50.972;18.210;2023-02-15T06:47:32;55.00;;;26.40;;
57297;SDS011;43147;50.972;18.210;2023-02-15T06:49:57;49.80;;;26.60;;
57297;SDS011;43147;50.972;18.210;2023-02-15T06:52:23;50.50;;;27.00;;
57297;SDS011;43147;50.972;18.210;2023-02-15T06:54:49;47.70;;;26.30;;
57297;SDS011;43147;50.972;18.210;2023-02-15T06:57:14;53.90;;;29.00;;
57297;SDS011;43147;50.972;18.210;2023-02-15T06:59:40;44.30;;;24.90;;
57297;SDS011;43147;50.972;18.210;2023-02-15T07:02:06;44.00;;;23.90;;
57297;SDS011;43147;50.972;18.210;2023-02-15T07:04:31;44.20;;;24.20;;
57297;SDS011;43147;50.972;18.210;2023-02-15T07:06:57;47.10;;;25.90;;
57297;SDS011;43147;50.972;18.210;2023-02-15T07:09:22;48.20;;;25.50;;
57297;SDS011;43147;50.972;18.210;2023-02-15T07:11:48;46.50;;;24.30;;
57297;SDS011;43147;50.972;18.210;2023-02-15T07:14:32;48.90;;;24.40;;
57297;SDS011;43147;50.972;18.210;2023-02-15T07:16:58;49.90;;;25.90;;
57297;SDS011;43147;50.972;18.210;2023-02-15T07:19:24;44.80;;;25.40;;
57297;SDS011;43147;50.972;18.210;2023-02-15T07:21:49;48.50;;;24.20;;
57297;SDS011;43147;50.972;18.210;2023-02-15T07:24:15;44.80;;;24.80;;
57297;SDS011;43147;50.972;18.210;2023-02-15T07:26:40;46.50;;;24.40;;
57297;SDS011;43147;50.972;18.210;2023-02-15T07:29:06;47.00;;;24.60;;
57297;SDS011;43147;50.972;18.210;2023-02-15T07:31:31;50.30;;;25.60;;
57297;SDS011;43147;50.972;18.210;2023-02-15T07:33:57;45.60;;;25.10;;
57297;SDS011;43147;50.972;18.210;2023-02-15T07:36:22;43.40;;;25.40;;
57297;SDS011;43147;50.972;18.210;2023-02-15T07:38:48;47.00;;;26.30;;
57297;SDS011;43147;50.972;18.210;2023-02-15T07:41:14;42.90;;;24.10;;
57297;SDS011;43147;50.972;18.210;2023-02-15T07:43:41;45.40;;;24.40;;
57297;SDS011;43147;50.972;18.210;2023-02-15T07:46:09;58.20;;;28.10;;
57297;SDS011;43147;50.972;18.210;2023-02-15T07:48:37;50.40;;;26.00;;
57297;SDS011;43147;50.972;18.210;2023-02-15T07:51:04;49.90;;;25.00;;
57297;SDS011;43147;50.972;18.210;2023-02-15T07:53:32;54.50;;;26.60;;
57297;SDS011;43147;50.972;18.210;2023-02-15T07:56:01;50.20;;;26.40;;
57297;SDS011;43147;50.972;18.210;2023-02-15T07:58:28;45.40;;;27.20;;
57297;SDS011;43147;50.972;18.210;2023-02-15T08:01:13;50.60;;;25.40;;
57297;SDS011;43147;50.972;18.210;2023-02-15T08:03:39;56.00;;;27.20;;
57297;SDS011;43147;50.972;18.210;2023-02-15T08:06:05;53.40;;;28.90;;
57297;SDS011;43147;50.972;18.210;2023-02-15T08:08:33;54.80;;;29.70;;
57297;SDS011;43147;50.972;18.210;2023-02-15T08:13:47;65.20;;;28.80;;
57297;SDS011;43147;50.972;18.210;2023-02-15T08:18:47;57.60;;;29.90;;
57297;SDS011;43147;50.972;18.210;2023-02-15T08:21:13;58.50;;;31.50;;
57297;SDS011;43147;50.972;18.210;2023-02-15T08:23:39;61.30;;;33.00;;
57297;SDS011;43147;50.972;18.210;2023-02-15T08:26:04;69.20;;;31.50;;
57297;SDS011;43147;50.972;18.210;2023-02-15T08:28:30;55.90;;;29.10;;
57297;SDS011;43147;50.972;18.210;2023-02-15T08:31:03;63.20;;;30.20;;
57297;SDS011;43147;50.972;18.210;2023-02-15T08:33:33;55.80;;;31.00;;
57297;SDS011;43147;50.972;18.210;2023-02-15T08:36:09;68.40;;;31.30;;
57297;SDS011;43147;50.972;18.210;2023-02-15T08:38:37;61.80;;;31.00;;
57297;SDS011;43147;50.972;18.210;2023-02-15T08:41:36;63.00;;;31.80;;
57297;SDS011;43147;50.972;18.210;2023-02-15T08:43:59;64.70;;;30.70;;
57297;SDS011;43147;50.972;18.210;2023-02-15T08:46:28;71.40;;;33.90;;
57297;SDS011;43147;50.972;18.210;2023-02-15T08:48:54;60.60;;;31.00;;
57297;SDS011;43147;50.972;18.210;2023-02-15T08:51:24;69.50;;;31.70;;
57297;SDS011;43147;50.972;18.210;2023-02-15T08:53:52;72.60;;;29.90;;
57297;SDS011;43147;50.972;18.210;2023-02-15T08:56:20;61.80;;;30.80;;
57297;SDS011;43147;50.972;18.210;2023-02-15T08:58:47;61.80;;;31.20;;
57297;SDS011;43147;50.972;18.210;2023-02-15T09:01:15;68.40;;;32.90;;
57297;SDS011;43147;50.972;18.210;2023-02-15T09:03:49;67.00;;;31.10;;
57297;SDS011;43147;50.972;18.210;2023-02-15T09:06:18;78.10;;;33.50;;
57297;SDS011;43147;50.972;18.210;2023-02-15T09:08:45;77.80;;;34.40;;
57297;SDS011;43147;50.972;18.210;2023-02-15T09:11:18;69.20;;;33.70;;
57297;SDS011;43147;50.972;18.210;2023-02-15T09:14:02;86.10;;;34.90;;
57297;SDS011;43147;50.972;18.210;2023-02-15T09:16:35;81.30;;;35.50;;
57297;SDS011;43147;50.972;18.210;2023-02-15T09:19:03;75.60;;;36.50;;
57297;SDS011;43147;50.972;18.210;2023-02-15T09:21:33;76.90;;;35.20;;
57297;SDS011;43147;50.972;18.210;2023-02-15T09:24:08;77.10;;;34.80;;
57297;SDS011;43147;50.972;18.210;2023-02-15T09:26:36;76.10;;;35.20;;
57297;SDS011;43147;50.972;18.210;2023-02-15T09:29:03;90.40;;;40.70;;
57297;SDS011;43147;50.972;18.210;2023-02-15T09:31:29;78.10;;;37.30;;
57297;SDS011;43147;50.972;18.210;2023-02-15T09:33:58;84.50;;;36.80;;
57297;SDS011;43147;50.972;18.210;2023-02-15T09:36:26;83.80;;;38.30;;
57297;SDS011;43147;50.972;18.210;2023-02-15T09:38:55;82.30;;;39.30;;
57297;SDS011;43147;50.972;18.210;2023-02-15T09:46:42;81.00;;;40.60;;
57297;SDS011;43147;50.972;18.210;2023-02-15T09:55:33;79.30;;;38.10;;
57297;SDS011;43147;50.972;18.210;2023-02-15T10:03:24;60.70;;;40.90;;
57297;SDS011;43147;50.972;18.210;2023-02-15T10:11:36;68.60;;;38.80;;
57297;SDS011;43147;50.972;18.210;2023-02-15T10:22:49;52.00;;;32.60;;
57297;SDS011;43147;50.972;18.210;2023-02-15T10:29:08;44.80;;;31.70;;
57297;SDS011;43147;50.972;18.210;2023-02-15T10:34:29;49.10;;;35.60;;
57297;SDS011;43147;50.972;18.210;2023-02-15T10:37:21;53.50;;;35.00;;
57297;SDS011;43147;50.972;18.210;2023-02-15T10:40:28;50.70;;;35.10;;
57297;SDS011;43147;50.972;18.210;2023-02-15T10:52:20;48.30;;;35.50;;
57297;SDS011;43147;50.972;18.210;2023-02-15T11:03:29;57.00;;;37.00;;
57297;SDS011;43147;50.972;18.210;2023-02-15T11:06:05;54.00;;;35.20;;
57297;SDS011;43147;50.972;18.210;2023-02-15T11:08:36;50.30;;;33.60;;
57297;SDS011;43147;50.972;18.210;2023-02-15T11:11:27;48.00;;;34.00;;
57297;SDS011;43147;50.972;18.210;2023-02-15T11:13:59;42.90;;;32.80;;
57297;SDS011;43147;50.972;18.210;2023-02-15T11:16:36;44.40;;;32.20;;
57297;SDS011;43147;50.972;18.210;2023-02-15T11:19:08;45.20;;;31.60;;
57297;SDS011;43147;50.972;18.210;2023-02-15T11:21:39;42.60;;;31.10;;
57297;SDS011;43147;50.972;18.210;2023-02-15T11:26:46;48.80;;;32.80;;
57297;SDS011;43147;50.972;18.210;2023-02-15T11:29:27;45.00;;;33.50;;
57297;SDS011;43147;50.972;18.210;2023-02-15T11:31:59;47.50;;;33.50;;
57297;SDS011;43147;50.972;18.210;2023-02-15T11:35:17;53.90;;;35.00;;
57297;SDS011;43147;50.972;18.210;2023-02-15T11:37:37;44.60;;;33.20;;
57297;SDS011;43147;50.972;18.210;2023-02-15T11:40:14;40.70;;;29.90;;
57297;SDS011;43147;50.972;18.210;2023-02-15T11:45:59;35.80;;;27.60;;
57297;SDS011;43147;50.972;18.210;2023-02-15T11:48:24;37.60;;;26.50;;
57297;SDS011;43147;50.972;18.210;2023-02-15T11:50:50;36.40;;;28.30;;
57297;SDS011;43147;50.972;18.210;2023-02-15T11:53:17;50.40;;;33.00;;
57297;SDS011;43147;50.972;18.210;2023-02-15T11:55:47;42.40;;;30.20;;
57297;SDS011;43147;50.972;18.210;2023-02-15T12:00:58;38.70;;;29.00;;
57297;SDS011;43147;50.972;18.210;2023-02-15T12:06:35;30.50;;;24.60;;
57297;SDS011;43147;50.972;18.210;2023-02-15T12:11:53;31.90;;;26.00;;
57297;SDS011;43147;50.972;18.210;2023-02-15T12:14:19;30.80;;;25.10;;
57297;SDS011;43147;50.972;18.210;2023-02-15T12:16:48;29.80;;;22.10;;
57297;SDS011;43147;50.972;18.210;2023-02-15T12:21:55;28.10;;;22.70;;
57297;SDS011;43147;50.972;18.210;2023-02-15T12:24:23;37.10;;;23.30;;
57297;SDS011;43147;50.972;18.210;2023-02-15T12:29:32;34.80;;;25.30;;
57297;SDS011;43147;50.972;18.210;2023-02-15T12:34:51;33.40;;;27.70;;
57297;SDS011;43147;50.972;18.210;2023-02-15T12:37:23;38.00;;;25.80;;
57297;SDS011;43147;50.972;18.210;2023-02-15T12:40:00;34.00;;;25.80;;
57297;SDS011;43147;50.972;18.210;2023-02-15T12:42:40;31.20;;;26.00;;
57297;SDS011;43147;50.972;18.210;2023-02-15T12:45:22;33.60;;;26.10;;
57297;SDS011;43147;50.972;18.210;2023-02-15T12:48:07;36.60;;;27.90;;
57297;SDS011;43147;50.972;18.210;2023-02-15T12:50:41;34.70;;;27.50;;
57297;SDS011;43147;50.972;18.210;2023-02-15T12:56:03;40.00;;;29.30;;
57297;SDS011;43147;50.972;18.210;2023-02-15T13:01:12;46.30;;;30.30;;
57297;SDS011;43147;50.972;18.210;2023-02-15T13:04:00;40.40;;;30.20;;
57297;SDS011;43147;50.972;18.210;2023-02-15T13:06:29;43.50;;;30.50;;
57297;SDS011;43147;50.972;18.210;2023-02-15T13:08:58;46.90;;;31.50;;
57297;SDS011;43147;50.972;18.210;2023-02-15T13:14:01;52.10;;;29.60;;
57297;SDS011;43147;50.972;18.210;2023-02-15T13:16:37;54.10;;;35.40;;
57297;SDS011;43147;50.972;18.210;2023-02-15T13:21:50;48.20;;;28.90;;
57297;SDS011;43147;50.972;18.210;2023-02-15T13:24:32;69.00;;;35.50;;
57297;SDS011;43147;50.972;18.210;2023-02-15T13:27:00;49.80;;;30.10;;
57297;SDS011;43147;50.972;18.210;2023-02-15T13:29:28;39.70;;;27.10;;
57297;SDS011;43147;50.972;18.210;2023-02-15T13:31:56;45.80;;;28.80;;
57297;SDS011;43147;50.972;18.210;2023-02-15T13:34:24;56.60;;;30.20;;
57297;SDS011;43147;50.972;18.210;2023-02-15T13:39:54;47.20;;;26.30;;
57297;SDS011;43147;50.972;18.210;2023-02-15T13:48:13;45.80;;;24.90;;
57297;SDS011;43147;50.972;18.210;2023-02-15T14:16:04;48.80;;;26.70;;
57297;SDS011;43147;50.972;18.210;2023-02-15T14:18:46;56.50;;;28.40;;
57297;SDS011;43147;50.972;18.210;2023-02-15T14:29:58;48.60;;;27.20;;
57297;SDS011;43147;50.972;18.210;2023-02-15T14:32:29;50.30;;;27.50;;
57297;SDS011;43147;50.972;18.210;2023-02-15T14:35:17;54.00;;;27.70;;
57297;SDS011;43147;50.972;18.210;2023-02-15T14:40:54;58.30;;;28.50;;
57297;SDS011;43147;50.972;18.210;2023-02-15T14:48:56;59.90;;;28.50;;
57297;SDS011;43147;50.972;18.210;2023-02-15T14:54:52;58.50;;;27.00;;
57297;SDS011;43147;50.972;18.210;2023-02-15T15:07:34;41.30;;;24.10;;
57297;SDS011;43147;50.972;18.210;2023-02-15T15:10:05;46.80;;;24.70;;
57297;SDS011;43147;50.972;18.210;2023-02-15T15:12:54;47.40;;;24.60;;
57297;SDS011;43147;50.972;18.210;2023-02-15T15:25:57;50.60;;;20.70;;
57297;SDS011;43147;50.972;18.210;2023-02-15T15:42:22;41.40;;;17.50;;
57297;SDS011;43147;50.972;18.210;2023-02-15T15:50:27;32.90;;;17.70;;
57297;SDS011;43147;50.972;18.210;2023-02-15T15:52:57;39.60;;;18.30;;
57297;SDS011;43147;50.972;18.210;2023-02-15T15:55:25;38.40;;;19.40;;
57297;SDS011;43147;50.972;18.210;2023-02-15T15:57:55;38.70;;;19.10;;
57297;SDS011;43147;50.972;18.210;2023-02-15T16:03:00;40.10;;;18.90;;
57297;SDS011;43147;50.972;18.210;2023-02-15T16:05:26;41.60;;;21.10;;
57297;SDS011;43147;50.972;18.210;2023-02-15T16:07:52;44.00;;;21.60;;
57297;SDS011;43147;50.972;18.210;2023-02-15T16:10:22;40.80;;;20.30;;
57297;SDS011;43147;50.972;18.210;2023-02-15T16:12:51;42.60;;;16.90;;
57297;SDS011;43147;50.972;18.210;2023-02-15T16:15:24;33.50;;;16.30;;
57297;SDS011;43147;50.972;18.210;2023-02-15T16:17:56;37.10;;;16.70;;
57297;SDS011;43147;50.972;18.210;2023-02-15T16:23:37;43.10;;;17.30;;
57297;SDS011;43147;50.972;18.210;2023-02-15T16:29:17;43.90;;;19.60;;
57297;SDS011;43147;50.972;18.210;2023-02-15T16:34:25;61.70;;;25.70;;
57297;SDS011;43147;50.972;18.210;2023-02-15T16:37:15;70.00;;;29.90;;
57297;SDS011;43147;50.972;18.210;2023-02-15T16:39:47;80.60;;;33.10;;
57297;SDS011;43147;50.972;18.210;2023-02-15T16:42:16;96.80;;;34.70;;
57297;SDS011;43147;50.972;18.210;2023-02-15T16:44:42;82.80;;;34.60;;
57297;SDS011;43147;50.972;18.210;2023-02-15T16:47:17;85.60;;;35.10;;
57297;SDS011;43147;50.972;18.210;2023-02-15T16:49:55;119.40;;;38.70;;
57297;SDS011;43147;50.972;18.210;2023-02-15T16:52:23;72.00;;;27.50;;
57297;SDS011;43147;50.972;18.210;2023-02-15T16:54:55;53.50;;;22.50;;
57297;SDS011;43147;50.972;18.210;2023-02-15T16:57:23;61.80;;;23.50;;
57297;SDS011;43147;50.972;18.210;2023-02-15T16:59:55;50.90;;;22.30;;
57297;SDS011;43147;50.972;18.210;2023-02-15T17:02:26;50.70;;;21.40;;
57297;SDS011;43147;50.972;18.210;2023-02-15T17:07:42;42.50;;;20.20;;
57297;SDS011;43147;50.972;18.210;2023-02-15T17:10:34;51.90;;;21.30;;
57297;SDS011;43147;50.972;18.210;2023-02-15T17:15:38;48.30;;;20.20;;
57297;SDS011;43147;50.972;18.210;2023-02-15T17:18:05;47.20;;;20.50;;
57297;SDS011;43147;50.972;18.210;2023-02-15T17:20:31;89.60;;;33.90;;
57297;SDS011;43147;50.972;18.210;2023-02-15T17:22:57;115.50;;;40.90;;
57297;SDS011;43147;50.972;18.210;2023-02-15T17:25:26;186.10;;;62.50;;
57297;SDS011;43147;50.972;18.210;2023-02-15T17:27:57;182.60;;;59.50;;
57297;SDS011;43147;50.972;18.210;2023-02-15T17:30:28;150.40;;;49.30;;
57297;SDS011;43147;50.972;18.210;2023-02-15T17:32:59;119.00;;;41.60;;
57297;SDS011;43147;50.972;18.210;2023-02-15T17:35:30;57.80;;;25.30;;
57297;SDS011;43147;50.972;18.210;2023-02-15T17:38:40;52.50;;;20.60;;
57297;SDS011;43147;50.972;18.210;2023-02-15T17:40:46;74.10;;;25.00;;
57297;SDS011;43147;50.972;18.210;2023-02-15T17:43:12;58.70;;;22.60;;
57297;SDS011;43147;50.972;18.210;2023-02-15T17:45:40;84.90;;;32.70;;
57297;SDS011;43147;50.972;18.210;2023-02-15T17:48:12;86.90;;;33.90;;
57297;SDS011;43147;50.972;18.210;2023-02-15T17:50:58;92.30;;;31.60;;
57297;SDS011;43147;50.972;18.210;2023-02-15T17:53:26;96.70;;;35.20;;
57297;SDS011;43147;50.972;18.210;2023-02-15T17:55:51;113.60;;;37.70;;
57297;SDS011;43147;50.972;18.210;2023-02-15T17:58:17;129.30;;;42.20;;
57297;SDS011;43147;50.972;18.210;2023-02-15T18:00:44;130.50;;;45.00;;
57297;SDS011;43147;50.972;18.210;2023-02-15T18:03:48;188.20;;;61.10;;
57297;SDS011;43147;50.972;18.210;2023-02-15T18:06:34;207.00;;;66.40;;
57297;SDS011;43147;50.972;18.210;2023-02-15T18:09:24;173.50;;;58.30;;
57297;SDS011;43147;50.972;18.210;2023-02-15T18:14:48;141.50;;;52.20;;
57297;SDS011;43147;50.972;18.210;2023-02-15T18:17:14;134.80;;;50.50;;
57297;SDS011;43147;50.972;18.210;2023-02-15T18:19:41;133.10;;;50.10;;
57297;SDS011;43147;50.972;18.210;2023-02-15T18:22:12;137.60;;;48.80;;
57297;SDS011;43147;50.972;18.210;2023-02-15T18:24:42;130.00;;;46.20;;
57297;SDS011;43147;50.972;18.210;2023-02-15T18:27:09;138.60;;;49.00;;
57297;SDS011;43147;50.972;18.210;2023-02-15T18:29:36;134.50;;;47.30;;
57297;SDS011;43147;50.972;18.210;2023-02-15T18:32:07;122.30;;;43.50;;